createdAt,value
2023-02-03T00:02:23.608Z,94911.84
2023-02-03T00:07:25.486Z,94913.94
2023-02-03T00:12:28.941Z,94915.50
2023-02-03T00:17:30.500Z,94900.94
2023-02-03T00:22:32.082Z,94900.06
2023-02-03T00:27:35.029Z,94900.94
2023-02-03T00:32:36.585Z,94907.13
2023-02-03T00:37:38.106Z,94894.72
2023-02-03T00:42:41.033Z,94899.53
2023-02-03T00:47:42.648Z,94902.50
2023-02-03T00:52:44.126Z,94898.31
2023-02-03T00:57:47.111Z,94888.72
2023-02-03T01:02:48.822Z,94884.97
2023-02-03T01:07:50.440Z,94898.25
2023-02-03T01:12:53.388Z,94926.66
2023-02-03T01:17:56.233Z,94933.31
2023-02-03T01:22:57.797Z,94920.22
2023-02-03T01:28:00.779Z,94911.00
2023-02-03T01:33:02.365Z,94927.47
2023-02-03T01:38:03.932Z,94918.13
2023-02-03T01:43:09.173Z,94897.47
2023-02-03T01:48:10.664Z,94869.50
2023-02-03T01:53:12.232Z,94852.19
2023-02-03T01:58:18.700Z,94883.66
2023-02-03T02:03:23.343Z,94886.28
2023-02-03T02:08:25.034Z,94869.75
2023-02-03T02:13:31.514Z,94861.66
2023-02-03T02:19:00.857Z,94861.66
2023-02-03T02:24:26.722Z,94859.31
2023-02-03T02:29:50.045Z,94871.72
2023-02-03T02:35:02.272Z,94867.59
2023-02-03T02:40:14.785Z,94837.34
2023-02-03T02:45:21.875Z,94850.63
2023-02-03T02:50:28.412Z,94839.13
2023-02-03T02:55:33.659Z,94823.28
2023-02-03T03:00:36.324Z,94829.09
2023-02-03T03:05:41.605Z,94838.47
2023-02-03T03:10:44.910Z,94823.41
2023-02-03T03:15:48.736Z,94824.31
2023-02-03T03:20:55.917Z,94814.00
2023-02-03T03:26:05.023Z,94850.19
2023-02-03T03:31:06.595Z,94851.25
2023-02-03T03:36:19.520Z,94835.16
2023-02-03T03:41:30.533Z,94846.88
2023-02-03T03:46:38.405Z,94838.78
2023-02-03T03:51:44.391Z,94842.06
2023-02-03T03:56:51.503Z,94847.91
2023-02-03T04:01:53.514Z,94870.03
2023-02-03T04:06:56.401Z,94889.59
2023-02-03T04:11:58.201Z,94889.31
2023-02-03T04:17:00.156Z,94902.50
2023-02-03T04:22:03.081Z,94914.53
2023-02-03T04:27:05.426Z,94913.38
2023-02-03T04:32:07.111Z,94919.22
2023-02-03T04:37:10.051Z,94899.44
2023-02-03T04:42:11.598Z,94879.91
2023-02-03T04:47:13.282Z,94895.38
2023-02-03T04:52:16.378Z,94890.56
2023-02-03T04:57:18.102Z,94892.03
2023-02-03T05:02:19.632Z,94873.03
2023-02-03T05:07:22.528Z,94865.72
2023-02-03T05:12:24.065Z,94865.47
2023-02-03T05:17:25.670Z,94850.59
2023-02-03T05:22:28.571Z,94857.69
2023-02-03T05:27:30.223Z,94815.97
2023-02-03T05:32:31.836Z,94847.69
2023-02-03T05:37:34.684Z,94850.44
2023-02-03T05:42:36.158Z,94844.25
2023-02-03T05:47:37.739Z,94849.38
2023-02-03T05:52:40.650Z,94850.91
2023-02-03T05:57:42.198Z,94864.53
2023-02-03T06:02:43.676Z,94897.94
2023-02-03T06:07:46.605Z,94896.97
2023-02-03T06:12:48.364Z,94900.28
2023-02-03T06:17:49.941Z,94863.25
2023-02-03T06:22:52.795Z,94862.06
2023-02-03T06:27:54.333Z,94873.03
2023-02-03T06:32:55.993Z,94867.91
2023-02-03T06:37:58.920Z,94888.94
2023-02-03T06:43:00.520Z,94892.59
2023-02-03T06:48:02.012Z,94888.63
2023-02-03T06:53:04.904Z,94881.28
2023-02-03T06:58:06.395Z,94882.47
2023-02-03T07:03:07.967Z,94894.75
2023-02-03T07:08:10.822Z,94894.75
2023-02-03T07:13:12.325Z,94900.16
2023-02-03T07:18:18.032Z,94875.03
2023-02-03T07:23:24.349Z,94855.53
2023-02-03T07:28:25.910Z,94845.50
2023-02-03T07:33:27.502Z,94845.19
2023-02-03T07:38:30.443Z,94842.97
2023-02-03T07:43:32.028Z,94833.50
2023-02-03T07:48:33.556Z,94845.34
2023-02-03T07:53:36.463Z,94840.38
2023-02-03T07:58:38.244Z,94842.16
2023-02-03T08:03:40.089Z,94863.25
2023-02-03T08:08:42.921Z,94873.63
2023-02-03T08:13:44.431Z,94870.34
2023-02-03T08:18:46.001Z,94879.94
2023-02-03T08:23:48.942Z,94895.84
2023-02-03T08:28:50.822Z,94889.78
2023-02-03T08:33:52.364Z,94936.34
2023-02-03T08:38:55.238Z,94930.66
2023-02-03T08:43:56.820Z,94917.34
2023-02-03T08:48:58.272Z,94914.81
2023-02-03T08:54:01.129Z,94884.69
2023-02-03T08:59:02.849Z,94890.72
2023-02-03T09:04:04.625Z,94898.69
2023-02-03T09:09:08.581Z,94926.91
2023-02-03T09:14:10.863Z,94926.19
2023-02-03T09:19:12.420Z,94929.97
2023-02-03T09:24:15.605Z,94911.19
2023-02-03T09:29:17.294Z,94911.66
2023-02-03T09:34:19.703Z,94899.13
2023-02-03T09:39:22.614Z,94897.66
2023-02-03T09:44:30.275Z,94881.44
2023-02-03T09:49:37.291Z,94894.06
2023-02-03T09:54:44.572Z,94886.69
2023-02-03T09:59:46.141Z,94897.25
2023-02-03T10:04:57.911Z,94904.00
2023-02-03T10:10:10.074Z,94895.13
2023-02-03T10:15:30.712Z,94881.97
2023-02-03T10:20:38.655Z,94885.50
2023-02-03T10:25:44.187Z,94881.91
2023-02-03T10:30:49.296Z,94868.56
2023-02-03T10:35:53.226Z,94862.44
2023-02-03T10:40:56.183Z,94881.13
2023-02-03T10:45:58.906Z,94883.75
2023-02-03T10:51:02.778Z,94901.16
2023-02-03T10:56:10.135Z,94889.91
2023-02-03T11:01:13.843Z,94881.03
2023-02-03T11:06:17.258Z,94884.63
2023-02-03T11:11:25.563Z,94859.03
2023-02-03T11:16:27.176Z,94834.34
2023-02-03T11:21:31.524Z,94835.03
2023-02-03T11:26:39.310Z,94853.78
2023-02-03T11:31:47.960Z,94850.31
2023-02-03T11:36:49.988Z,94844.97
2023-02-03T11:41:54.372Z,94833.06
2023-02-03T11:46:59.410Z,94835.69
2023-02-03T11:52:07.910Z,94834.06
2023-02-03T11:57:27.216Z,94843.97
2023-02-03T12:02:58.571Z,94829.50
2023-02-03T12:08:10.013Z,94803.16
2023-02-03T12:13:24.477Z,94798.44
2023-02-03T12:18:40.832Z,94789.53
2023-02-03T12:23:52.465Z,94780.66
2023-02-03T12:29:01.682Z,94773.34
2023-02-03T12:34:13.272Z,94778.81
2023-02-03T12:39:22.451Z,94785.22
2023-02-03T12:44:31.842Z,94776.09
2023-02-03T12:49:41.519Z,94757.78
2023-02-03T12:54:49.579Z,94768.63
2023-02-03T13:00:00.735Z,94751.44
2023-02-03T13:05:10.675Z,94745.03
2023-02-03T13:10:19.876Z,94715.00
2023-02-03T13:15:28.321Z,94684.69
2023-02-03T13:20:32.806Z,94679.63
2023-02-03T13:25:48.433Z,94669.28
2023-02-03T13:31:28.497Z,94654.63
2023-02-03T13:37:06.768Z,94660.28
2023-02-03T13:42:21.778Z,94662.56
2023-02-03T13:47:29.722Z,94691.66
2023-02-03T13:52:35.943Z,94686.78
2023-02-03T13:57:38.578Z,94677.09
2023-02-03T14:02:51.982Z,94686.34
2023-02-03T14:07:53.497Z,94680.66
2023-02-03T14:12:57.461Z,94678.91
2023-02-03T14:18:32.065Z,94682.94
2023-02-03T14:23:50.165Z,94702.50
2023-02-03T14:28:53.839Z,94692.00
2023-02-03T14:34:08.792Z,94700.13
2023-02-03T14:39:52.553Z,94709.09
2023-02-03T14:45:06.995Z,94715.97
2023-02-03T14:56:11.639Z,94709.66
2023-02-03T15:01:45.618Z,94697.41
2023-02-03T15:06:50.716Z,94685.28
2023-02-03T15:11:52.672Z,94678.94
2023-02-03T15:16:57.287Z,94682.41
2023-02-03T15:22:00.886Z,94692.72
2023-02-03T15:27:02.525Z,94690.53
2023-02-03T15:32:12.719Z,94678.66
2023-02-03T15:37:19.761Z,94679.06
2023-02-03T15:42:29.736Z,94693.69
2023-02-03T15:47:35.302Z,94692.72
2023-02-03T15:52:42.681Z,94724.38
2023-02-03T15:57:47.643Z,94699.47
2023-02-03T16:02:49.792Z,94712.84
2023-02-03T16:07:53.229Z,94694.25
2023-02-03T16:13:09.836Z,94698.94
2023-02-03T16:18:17.443Z,94721.38
2023-02-03T16:23:22.099Z,94727.28
2023-02-03T16:28:23.668Z,94726.19
2023-02-03T16:33:25.157Z,94716.28
2023-02-03T16:38:28.863Z,94737.63
2023-02-03T16:43:30.487Z,94745.75
2023-02-03T16:48:32.851Z,94748.09
2023-02-03T16:53:35.869Z,94741.88
2023-02-03T16:58:37.450Z,94755.59
2023-02-03T17:03:38.983Z,94759.91
2023-02-03T17:08:42.093Z,94747.41
2023-02-03T17:13:44.380Z,94763.06
2023-02-03T17:18:46.823Z,94773.78
2023-02-03T17:23:49.934Z,94751.72
2023-02-03T17:28:51.445Z,94766.72
2023-02-03T17:33:53.041Z,94767.34
2023-02-03T17:54:55.859Z,94751.41
2023-02-03T17:59:57.988Z,94773.81
2023-02-03T18:05:00.036Z,94758.06
2023-02-03T18:10:03.051Z,94793.50
2023-02-03T18:15:04.966Z,94801.84
2023-02-03T18:20:07.382Z,94797.06
2023-02-03T18:25:11.042Z,94796.53
2023-02-03T18:30:14.032Z,94774.44
2023-02-03T18:35:15.657Z,94779.91
2023-02-03T18:40:18.820Z,94792.09
2023-02-03T18:45:20.436Z,94783.63
2023-02-03T18:50:22.170Z,94776.66
2023-02-03T18:55:25.145Z,94787.72
2023-02-03T19:00:26.684Z,94783.97
2023-02-03T19:05:29.139Z,94780.22
2023-02-03T19:10:32.158Z,94782.06
2023-02-03T19:15:33.782Z,94776.13
2023-02-03T19:20:35.298Z,94780.41
2023-02-03T19:25:38.438Z,94780.19
2023-02-03T19:30:39.966Z,94788.25
2023-02-03T19:35:41.680Z,94781.97
2023-02-03T19:40:45.209Z,94799.00
2023-02-03T19:45:46.800Z,94799.28
2023-02-03T19:50:48.897Z,94796.91
2023-02-03T19:55:52.116Z,94799.44
2023-02-03T20:01:02.341Z,94807.16
2023-02-03T20:06:04.089Z,94816.50
2023-02-03T20:11:07.071Z,94820.56
2023-02-03T20:16:08.929Z,94803.16
2023-02-03T20:21:13.582Z,94793.78
2023-02-03T20:26:16.551Z,94803.69
2023-02-03T20:31:18.239Z,94800.00
2023-02-03T20:36:19.921Z,94813.81
2023-02-03T20:41:22.970Z,94812.34
2023-02-03T20:46:24.616Z,94814.00
2023-02-03T20:51:26.431Z,94825.56
2023-02-03T20:56:29.377Z,94802.34
2023-02-03T21:01:31.003Z,94811.78
2023-02-03T21:06:34.285Z,94811.72
2023-02-03T21:11:37.163Z,94816.41
2023-02-03T21:16:38.895Z,94829.63
2023-02-03T21:21:40.870Z,94828.50
2023-02-03T21:26:43.764Z,94833.47
2023-02-03T21:31:45.367Z,94822.06
2023-02-03T21:36:46.936Z,94841.06
2023-02-03T21:41:52.901Z,94841.09
2023-02-03T21:46:54.581Z,94850.19
2023-02-03T21:51:56.156Z,94833.03
2023-02-03T21:56:59.672Z,94815.69
2023-02-03T22:02:01.294Z,94821.31
2023-02-03T22:07:14.621Z,94815.50
2023-02-03T22:12:17.594Z,94822.59
2023-02-03T22:17:19.134Z,94819.78
2023-02-03T22:22:20.696Z,94812.09
2023-02-03T22:27:23.714Z,94810.97
2023-02-03T22:32:25.285Z,94826.38
2023-02-03T22:37:26.856Z,94829.88
2023-02-03T22:42:29.848Z,94838.28
2023-02-03T22:47:31.358Z,94843.50
2023-02-03T22:52:33.039Z,94852.34
2023-02-03T22:57:36.110Z,94849.31
2023-02-03T23:02:38.098Z,94849.84
2023-02-03T23:07:40.478Z,94856.16
2023-02-03T23:12:43.342Z,94860.81
2023-02-03T23:17:45.751Z,94856.19
2023-02-03T23:22:47.349Z,94857.81
2023-02-03T23:27:50.481Z,94847.25
2023-02-03T23:32:52.656Z,94834.28
2023-02-03T23:37:54.387Z,94840.28
2023-02-03T23:42:57.272Z,94847.75
2023-02-03T23:47:58.786Z,94848.72
2023-02-03T23:53:00.311Z,94848.31
2023-02-03T23:58:03.362Z,94855.09
